Condiciones actuales en los principales Aeropuertos de España-Datos Metar

 

LEAL - Alicante
Actualización: 20/04/2024 15:30
Despejado
Despejado
 Viento del E
Viento: E 17 km/h
Temperatura: 17°C
Rocío: 10°C
Humedad: 64%
Barómetro: 1016 hPa
Resumen: Despejado
Visibilidad: greater than 10 km
2024/04/20 13:30 LEAL 201330Z 09009KT 050V150 CAVOK 17/10 Q1016 NOSIG
LEAB - Albacete
Actualización: 20/04/2024 15:30
Despejado
Despejado
 Viento del N
Viento: N 15 km/h
Temperatura: 22°C
Rocío: 0°C
Humedad: 23%
Barómetro: 1014 hPa
Resumen: Despejado
Visibilidad: greater than 10 km
2024/04/20 13:30 LEAB 201330Z 01008KT 310V080 CAVOK 22/00 Q1014 NOSIG
LEAM - Almería
Actualización: 20/04/2024 15:30
Few Clouds
Few Clouds
 Viento del E
Viento: E 24 km/h
Temperatura: 21°C
Rocío: 6°C
Humedad: 38%
Barómetro: 1014 hPa
Nubosidad: Few Clouds
Visibilidad: 10 km
Cloud details: Few Clouds 1524 m
2024/04/20 13:30 LEAM 201330Z 08013KT 050V120 9999 FEW050 21/06 Q1014
 
LEAS - Asturias/Aviles
Actualización: 20/04/2024 15:30
Few Clouds
Few Clouds
 Viento del E
Viento: E 22 km/h
Temperatura: 16°C
Rocío: 10°C
Humedad: 68%
Barómetro: 1020 hPa
Nubosidad: Few Clouds
Visibilidad: 10 km
Cloud details: Few Clouds 610 m
2024/04/20 13:30 LEAS 201330Z 08012KT 040V110 9999 FEW020 16/10 Q1020 NOSIG
LEBZ - Badajoz/Talavera la Real
Actualización: 20/04/2024 15:30
Few Clouds
Few Clouds
 Viento del SO
Viento: SO 6 km/h
Temperatura: 27°C
Rocío: 12°C
Humedad: 39%
Barómetro: 1013 hPa
Nubosidad: Few Clouds
Visibilidad: 10 km
Cloud details: Few Clouds 1494 m
2024/04/20 13:30 LEBZ 201330Z 23003KT 9999 FEW049 27/12 Q1013
LEBL - Barcelona
Actualización: 20/04/2024 15:30
Partly Cloudy
Partly Cloudy
 Viento del S
Viento: S 13 km/h
Temperatura: 17°C
Rocío: 12°C
Humedad: 73%
Barómetro: 1016 hPa
Nubosidad: Partly Cloudy
Visibilidad: 10 km
Cloud details: Few Clouds 427 m
Partly Cloudy 610 m
2024/04/20 13:30 LEBL 201330Z 17007KT 130V210 9999 FEW014 SCT020 17/12 Q1016 NOSIG
 
LEBB - Bilbao
Actualización: 20/04/2024 15:30
Despejado
Despejado
 Viento del varies
Viento: varies 17 km/h
Temperatura: 19°C
Rocío: 6°C
Humedad: 43%
Barómetro: 1021 hPa
Resumen: Despejado
Visibilidad: greater than 10 km
2024/04/20 13:30 LEBB 201330Z VRB09KT CAVOK 19/06 Q1021 NOSIG
LEBG - Burgos/Villafría
Actualización: 20/04/2024 15:30
Despejado
Despejado
 Viento del NE
Viento: NE 33 km/h
Temperatura: 16°C
Rocío: 2°C
Humedad: 39%
Barómetro: 1019 hPa
Resumen: Despejado
Visibilidad: greater than 10 km
2024/04/20 13:30 LEBG 201330Z 05018KT CAVOK 16/02 Q1019
LEBA - Córdoba
Actualización: 20/04/2024 15:30
Few Clouds
Few Clouds
 Viento del SSO
Viento: SSO 9 km/h
Temperatura: 24°C
Rocío: 11°C
Humedad: 44%
Barómetro: 1012 hPa
Nubosidad: Few Clouds
Visibilidad: 10 km
Cloud details: Few Clouds 1067 m
2024/04/20 13:30 LEBA 201330Z 21005KT 170V280 9999 FEW035 24/11 Q1012
 
LEGE - Gerona
Actualización: 20/04/2024 15:30
Despejado
Despejado
 Viento del S
Viento: S 22 km/h
Temperatura: 20°C
Rocío: 5°C
Humedad: 38%
Barómetro: 1015 hPa
Resumen: Despejado
Visibilidad: greater than 10 km
2024/04/20 13:30 LEGE 201330Z 19012KT CAVOK 20/05 Q1015 WS ALL RWY
LEGR - Granada
Actualización: 20/04/2024 15:30
Few Clouds
Few Clouds
 Viento del OSO
Viento: OSO 11 km/h
Temperatura: 25°C
Rocío: 8°C
Humedad: 34%
Barómetro: 1012 hPa
Nubosidad: Few Clouds
Visibilidad: 10 km
Cloud details: Few Clouds 1219 m
2024/04/20 13:30 LEGR 201330Z 25006KT 210V310 9999 FEW040CB 25/08 Q1012
GCHI - Hierro
Actualización: 20/04/2024 15:30
Few Clouds
Few Clouds
 Viento del N
Viento: N 26 km/h
Temperatura: 23°C
Rocío: 16°C
Humedad: 65%
Barómetro: 1017 hPa
Nubosidad: Few Clouds
Visibilidad: 10 km
Cloud details: Few Clouds 610 m
2024/04/20 13:30 GCHI 201330Z 35014KT 9999 FEW020 23/16 Q1017
 
LEIB - Ibiza
Actualización: 20/04/2024 15:30
Despejado
Despejado
 Viento del E
Viento: E 11 km/h
Temperatura: 18°C
Rocío: 6°C
Humedad: 46%
Barómetro: 1015 hPa
Resumen: Despejado
Visibilidad: greater than 10 km
2024/04/20 13:30 LEIB 201330Z 09006KT 030V140 CAVOK 18/06 Q1015 NOSIG
LEJR - Jerez de la Frontera
Actualización: 20/04/2024 15:30
Few Clouds
Few Clouds
 Viento del S
Viento: S 17 km/h
Temperatura: 20°C
Rocío: 11°C
Humedad: 56%
Barómetro: 1014 hPa
Nubosidad: Few Clouds
Visibilidad: 10 km
Cloud details: Few Clouds 1829 m
2024/04/20 13:30 LEJR 201330Z 17009KT 120V220 9999 FEW060 20/11 Q1014
LECO - A Coruña
Actualización: 20/04/2024 15:30
Despejado
Despejado
 Viento del NNO
Viento: NNO 11 km/h
Temperatura: 22°C
Rocío: 9°C
Humedad: 44%
Barómetro: 1016 hPa
Resumen: Despejado
Visibilidad: greater than 10 km
2024/04/20 13:30 LECO 201330Z 34006KT 300V050 CAVOK 22/09 Q1016 NOSIG
 
GCLA - La Palma
Actualización: 20/04/2024 15:30
Few Clouds
Few Clouds
 Viento del ENE
Viento: ENE 17 km/h
Temperatura: 23°C
Rocío: 16°C
Humedad: 65%
Barómetro: 1017 hPa
Nubosidad: Few Clouds
Visibilidad: 10 km
Cloud details: Few Clouds 1067 m
2024/04/20 13:30 GCLA 201330Z 06009KT 350V110 9999 FEW035 23/16 Q1017
GCRR - Lanzarote
Actualización: 20/04/2024 15:30
Partly Cloudy
Partly Cloudy
 Viento del N
Viento: N 20 km/h
Temperatura: 25°C
Rocío: 13°C
Humedad: 47%
Barómetro: 1015 hPa
Nubosidad: Partly Cloudy
Visibilidad: 10 km
Cloud details: Few Clouds 914 m
Partly Cloudy 1219 m
2024/04/20 13:30 GCRR 201330Z 36011KT 320V050 9999 FEW030 SCT040 25/13 Q1015
GCLP - Las Palmas
Actualización: 20/04/2024 15:30
Few Clouds
Few Clouds
 Viento del NNE
Viento: NNE 43 km/h
Temperatura: 25°C
Rocío: 16°C
Humedad: 57%
Barómetro: 1016 hPa
Nubosidad: Few Clouds
Visibilidad: 10 km
Cloud details: Few Clouds 1219 m
2024/04/20 13:30 GCLP 201330Z 03023KT 9999 FEW040 25/16 Q1016 NOSIG
 
LELN - León
Actualización: 20/04/2024 15:30
Despejado
Despejado
 Viento del SSE
Viento: SSE 15 km/h
Temperatura: 20°C
Rocío: -1°C
Humedad: 24%
Barómetro: 1018 hPa
Resumen: Despejado
Visibilidad: greater than 10 km
2024/04/20 13:30 LELN 201330Z 15008KT 110V200 CAVOK 20/M01 Q1018
LELO - Logroño
Actualización: 20/04/2024 15:30
Despejado
Despejado
 Viento del NNE
Viento: NNE 17 km/h
Temperatura: 22°C
Rocío: 1°C
Humedad: 25%
Barómetro: 1017 hPa
Resumen: Despejado
Visibilidad: greater than 10 km
2024/04/20 13:30 LELO 201330Z AUTO 03009KT 330V100 CAVOK 22/01 Q1017
LECV - Madrid/Colmenar
Actualización: 19/04/2024 20:00
NO Actualizado
Despejado
Despejado
 Viento del SO
Viento: SO 6 km/h
Temperatura: 17°C
Rocío: 5°C
Humedad: 45%
Barómetro: 1018 hPa
Resumen: Despejado
Visibilidad: greater than 10 km
2024/04/19 18:00 LECV 191800Z 22003KT CAVOK 17/05 Q1018
 
LEMD - Madrid/Barajas
Actualización: 20/04/2024 15:30
Despejado
Despejado
 Viento del NNE
Viento: NNE 4 km/h
Temperatura: 24°C
Rocío: 1°C
Humedad: 22%
Barómetro: 1014 hPa
Resumen: Despejado
Visibilidad: greater than 10 km
2024/04/20 13:30 LEMD 201330Z 02002KT CAVOK 24/01 Q1014 NOSIG
LEVS - Madrid/Cuatro Vientos
Actualización: 20/04/2024 15:30
Few Clouds
Few Clouds
 Viento del NE
Viento: NE 13 km/h
Temperatura: 22°C
Rocío: 1°C
Humedad: 25%
Barómetro: 1015 hPa
Nubosidad: Few Clouds
Visibilidad: 10 km
Cloud details: Few Clouds 1981 m
2024/04/20 13:30 LEVS 201330Z 04007KT 320V120 9999 FEW065 22/01 Q1015
LEGT - Madrid/Getafe
Actualización: 20/04/2024 15:30
Despejado
Despejado
 Viento del E
Viento: E 13 km/h
Temperatura: 23°C
Rocío: 4°C
Humedad: 29%
Barómetro: 1015 hPa
Resumen: Despejado
Visibilidad: greater than 10 km
2024/04/20 13:30 LEGT 201330Z 08007KT 010V140 CAVOK 23/04 Q1015
 
LETO - Madrid/Torrejón
Actualización: 20/04/2024 15:30
Despejado
Despejado
 Viento del ENE
Viento: ENE 9 km/h
Temperatura: 24°C
Rocío: 1°C
Humedad: 22%
Barómetro: 1014 hPa
Resumen: Despejado
Visibilidad: greater than 10 km
2024/04/20 13:30 LETO 201330Z 06005KT CAVOK 24/01 Q1014 NOSIG
LEMG - Málaga
Actualización: 20/04/2024 15:30
Partly Cloudy
Partly Cloudy
 Viento del SE
Viento: SE 15 km/h
Temperatura: 18°C
Rocío: 12°C
Humedad: 68%
Barómetro: 1015 hPa
Nubosidad: Partly Cloudy
Visibilidad: 10 km
Cloud details: Few Clouds 610 m
Partly Cloudy 1219 m
2024/04/20 13:30 LEMG 201330Z 14008KT 110V180 9999 FEW020 SCT040 18/12 Q1015 NOSIG
GEML - Melilla
Actualización: 20/04/2024 15:30
Mostly Cloudy
Mostly Cloudy
 Viento del ENE
Viento: ENE 11 km/h
Temperatura: 17°C
Rocío: 13°C
Humedad: 77%
Barómetro: 1014 hPa
Nubosidad: Mostly Cloudy
Visibilidad: 10 km
Cloud details: Few Clouds 427 m
Mostly Cloudy 488 m
2024/04/20 13:30 GEML 201330Z 06006KT 010V100 9999 FEW014 BKN016 17/13 Q1014
 
LEMH - Mahón
Actualización: 20/04/2024 15:30
Despejado
Despejado
 Viento del N
Viento: N 33 km/h
Temperatura: 18°C
Rocío: 6°C
Humedad: 46%
Barómetro: 1016 hPa
Resumen: Despejado
Visibilidad: greater than 10 km
2024/04/20 13:30 LEMH 201330Z 36018KT 330V030 CAVOK 18/06 Q1016
LEMO - Morón de La Frontera
Actualización: 20/04/2024 15:30
Despejado
Despejado
 Viento del SO
Viento: SO 11 km/h
Temperatura: 21°C
Rocío: 11°C
Humedad: 53%
Barómetro: 1013 hPa
Resumen: Despejado
Visibilidad: greater than 10 km
2024/04/20 13:30 LEMO 201330Z 23006KT 170V280 CAVOK 21/11 Q1013 NOSIG
LEMI - Murcia/Corvera
Actualización: 20/04/2024 15:30
Despejado
Despejado
 Viento del ESE
Viento: ESE 26 km/h
Temperatura: 19°C
Rocío: 7°C
Humedad: 46%
Barómetro: 1015 hPa
Resumen: Despejado
Visibilidad: greater than 10 km
2024/04/20 13:30 LEMI 201330Z 11014KT 080V140 CAVOK 19/07 Q1015
 
LERI - Murcia/Alcantarilla
Actualización: 20/04/2024 15:30
Despejado
Despejado
 Viento del E
Viento: E 19 km/h
Temperatura: 22°C
Rocío: 5°C
Humedad: 33%
Barómetro: 1014 hPa
Resumen: Despejado
Visibilidad: greater than 10 km
2024/04/20 13:30 LERI 201330Z 08010KT 050V110 CAVOK 22/05 Q1014 NOSIG
LELC - Murcia/San Javier
Actualización: 20/04/2024 15:30
Despejado
Despejado
 Viento del E
Viento: E 13 km/h
Temperatura: 19°C
Rocío: 11°C
Humedad: 60%
Barómetro: 1016 hPa
Resumen: Despejado
Visibilidad: greater than 10 km
2024/04/20 13:30 LELC 201330Z 09007KT 050V130 CAVOK 19/11 Q1016 NOSIG
LEPA - Palma de Mallorca
Actualización: 20/04/2024 15:30
Few Clouds
Few Clouds
 Viento del OSO
Viento: OSO 20 km/h
Temperatura: 19°C
Rocío: 10°C
Humedad: 56%
Barómetro: 1016 hPa
Nubosidad: Few Clouds
Visibilidad: 10 km
Cloud details: Few Clouds 488 m
2024/04/20 13:30 LEPA 201330Z 24011KT 9999 FEW016 19/10 Q1016 NOSIG
 
LEPP - Pamplona
Actualización: 20/04/2024 15:30
Despejado
Despejado
 Viento del N
Viento: N 35 km/h
Temperatura: 17°C
Rocío: 0°C
Humedad: 32%
Barómetro: 1018 hPa
Resumen: Despejado
Visibilidad: greater than 10 km
2024/04/20 13:30 LEPP 201330Z 01019KT 340V040 CAVOK 17/M00 Q1018
LERS - Reus
Actualización: 20/04/2024 15:30
Few Clouds
Few Clouds
 Viento del SSE
Viento: SSE 13 km/h
Temperatura: 19°C
Rocío: 10°C
Humedad: 56%
Barómetro: 1016 hPa
Nubosidad: Few Clouds
Visibilidad: 10 km
Cloud details: Few Clouds 914 m
2024/04/20 13:30 LERS 201330Z 15007KT 070V230 9999 FEW030 19/10 Q1016
LERT - Rota
Actualización: 20/04/2024 15:30
Few Clouds
Few Clouds
 Viento del SE
Viento: SE 22 km/h
Temperatura: 18°C
Rocío: 12°C
Humedad: 68%
Barómetro: 1014 hPa
Nubosidad: Few Clouds
Visibilidad: 10 km
Cloud details: Few Clouds 1463 m
2024/04/20 13:30 LERT 201330Z 14012KT 110V170 9999 FEW048 18/12 Q1014 NOSIG
 
LELL - Sabadell
Actualización: 20/04/2024 15:30
Despejado
Despejado
 Viento del ESE
Viento: ESE 20 km/h
Temperatura: 18°C
Rocío: 9°C
Humedad: 56%
Barómetro: 1016 hPa
Resumen: Despejado
Visibilidad: greater than 10 km
2024/04/20 13:30 LELL 201330Z 12011KT 070V160 CAVOK 18/09 Q1016
LESA - Salamanca
Actualización: 20/04/2024 15:30
Few Clouds
Few Clouds
 Viento del ENE
Viento: ENE 17 km/h
Temperatura: 21°C
Rocío: 1°C
Humedad: 27%
Barómetro: 1016 hPa
Nubosidad: Few Clouds
Visibilidad: 10 km
Cloud details: Few Clouds 1219 m
2024/04/20 13:30 LESA 201330Z 07009KT 020V120 9999 FEW040TCU 21/01 Q1016
LESO - San Sebastián
Actualización: 20/04/2024 15:30
Few Clouds
Few Clouds
 Viento del N
Viento: N 15 km/h
Temperatura: 15°C
Rocío: 9°C
Humedad: 68%
Barómetro: 1021 hPa
Nubosidad: Few Clouds
Visibilidad: 10 km
Cloud details: Few Clouds 762 m
2024/04/20 13:30 LESO 201330Z 35008KT 300V030 9999 FEW025 15/09 Q1021
 
LEXJ - Santander
Actualización: 20/04/2024 15:30
Few Clouds
Few Clouds
 Viento del NE
Viento: NE 20 km/h
Temperatura: 15°C
Rocío: 10°C
Humedad: 72%
Barómetro: 1021 hPa
Nubosidad: Few Clouds
Visibilidad: 10 km
Cloud details: Few Clouds 610 m
2024/04/20 13:30 LEXJ 201330Z 05011KT 360V110 9999 FEW020 15/10 Q1021
LEPA - Palma de Mallorca
Actualización: 20/04/2024 15:30
Few Clouds
Few Clouds
 Viento del OSO
Viento: OSO 20 km/h
Temperatura: 19°C
Rocío: 10°C
Humedad: 56%
Barómetro: 1016 hPa
Nubosidad: Few Clouds
Visibilidad: 10 km
Cloud details: Few Clouds 488 m
2024/04/20 13:30 LEPA 201330Z 24011KT 9999 FEW016 19/10 Q1016 NOSIG
LEPP - Pamplona
Actualización: 20/04/2024 15:30
Despejado
Despejado
 Viento del N
Viento: N 35 km/h
Temperatura: 17°C
Rocío: 0°C
Humedad: 32%
Barómetro: 1018 hPa
Resumen: Despejado
Visibilidad: greater than 10 km
2024/04/20 13:30 LEPP 201330Z 01019KT 340V040 CAVOK 17/M00 Q1018
 
LEST - Santiago de Compostela
Actualización: 20/04/2024 15:30
Few Clouds
Few Clouds
 Viento del varies
Viento: varies 6 km/h
Temperatura: 24°C
Rocío: 8°C
Humedad: 36%
Barómetro: 1016 hPa
Nubosidad: Few Clouds
Visibilidad: 10 km
Cloud details: Few Clouds 274 m
2024/04/20 13:30 LEST 201330Z VRB03KT 9999 FEW009 24/08 Q1016 NOSIG
LEZL - Sevilla
Actualización: 20/04/2024 15:30
Despejado
Despejado
 Viento del SO
Viento: SO 15 km/h
Temperatura: 19°C
Rocío: 10°C
Humedad: 56%
Barómetro: 1014 hPa
Resumen: Despejado
Visibilidad: greater than 10 km
2024/04/20 13:30 LEZL 201330Z 23008KT 210V270 CAVOK 19/10 Q1014 NOSIG
GCXO - Tenerife
Actualización: 20/04/2024 15:30
Partly Cloudy
Partly Cloudy
 Viento del NO
Viento: NO 30 km/h
Temperatura: 18°C
Rocío: 13°C
Humedad: 73%
Barómetro: 1018 hPa
Nubosidad: Partly Cloudy
Visibilidad: 10 km
Cloud details: Few Clouds 213 m
Partly Cloudy 335 m
2024/04/20 13:30 GCXO 201330Z 31016KT 9999 FEW007 SCT011 18/13 Q1018 NOSIG
 
GCTS - Tenerife-Sur
Actualización: 20/04/2024 15:30
Mostly Cloudy
Mostly Cloudy
 Viento del SE
Viento: SE 15 km/h
Temperatura: 23°C
Rocío: 15°C
Humedad: 61%
Barómetro: 1016 hPa
Nubosidad: Mostly Cloudy
Visibilidad: 10 km
Cloud details: Partly Cloudy 914 m
Mostly Cloudy 1219 m
2024/04/20 13:30 GCTS 201330Z 13008KT 100V160 9999 SCT030 BKN040 23/15 Q1016 NOSIG
LEVC - Valencia
Actualización: 20/04/2024 15:30
Despejado
Despejado
 Viento del ESE
Viento: ESE 19 km/h
Temperatura: 21°C
Rocío: 7°C
Humedad: 40%
Barómetro: 1015 hPa
Resumen: Despejado
Visibilidad: greater than 10 km
2024/04/20 13:30 LEVC 201330Z 12010KT 080V150 CAVOK 21/07 Q1015 NOSIG
LEVD - Valladolid
Actualización: 20/04/2024 15:30
Despejado
Despejado
 Viento del ENE
Viento: ENE 30 km/h
Temperatura: 19°C
Rocío: 1°C
Humedad: 30%
Barómetro: 1017 hPa
Resumen: Despejado
Visibilidad: greater than 10 km
2024/04/20 13:30 LEVD 201330Z 06016KT CAVOK 19/01 Q1017
 
LEVX - Vigo
Actualización: 20/04/2024 15:30
Despejado
Despejado
 Viento del OSO
Viento: OSO 17 km/h
Temperatura: 23°C
Rocío: 12°C
Humedad: 50%
Barómetro: 1016 hPa
Resumen: Despejado
Visibilidad: greater than 10 km
2024/04/20 13:30 LEVX 201330Z 24009KT 220V280 CAVOK 23/12 Q1016 NOSIG
LEVT - Vitoria
Actualización: 20/04/2024 15:30
Despejado
Despejado
 Viento del NE
Viento: NE 19 km/h
Temperatura: 18°C
Rocío: 5°C
Humedad: 43%
Barómetro: 1020 hPa
Resumen: Despejado
Visibilidad: greater than 10 km
2024/04/20 13:30 LEVT 201330Z 04010KT 330V080 CAVOK 18/05 Q1020
LEZG - Zaragoza
Actualización: 20/04/2024 15:30
Despejado
Despejado
 Viento del NO
Viento: NO 19 km/h, Racha: 37 km/h
Temperatura: 24°C
Rocío: 2°C
Humedad: 24%
Barómetro: 1014 hPa
Resumen: Despejado
Visibilidad: greater than 10 km
2024/04/20 13:30 LEZG 201330Z 31010G20KT 250V350 CAVOK 24/02 Q1014

La estación de MeteoMurcia.com, publica sus datos en los siguientes proyectos:

Weather Underground PWS IMURCIAP2 Meteoclimatic www.awekas.at

Web Analytics

Clicky